Data for 01/01/2013

Time Sea-Level Adjusted Pressure Absolute Pressure Temperature Relative Humidity Dew Point   
(mb) (inHg) (mb) (inHg) (C) (F) (%) (C) (F)
00:05 1021 30.15 851 25.13 -6.9 19.5 68 -11.9 10.5
00:10 1021 30.15 851 25.13 -7 19.3 67 -12.1 10.2
00:15 1021 30.15 851 25.13 -7.2 19.1 69 -12 10.4
00:20 1021 30.15 851 25.13 -7.1 19.3 67 -12.2 10.1
00:25 1021 30.15 851 25.13 -7 19.4 68 -12 10.4
00:30 1021 30.15 851 25.13 -7 19.5 67 -12.1 10.3
00:35 1021 30.15 851 25.13 -6.9 19.6 68 -11.9 10.6
00:40 1021 30.15 851 25.13 -6.9 19.6 66 -12.2 10
00:45 1021 30.15 851 25.13 -6.8 19.7 66 -12.2 10.1
00:50 1022 30.18 851 25.13 -6.8 19.8 67 -12 10.5
00:55 1022 30.18 851 25.13 -6.8 19.8 67 -12 10.4
01:00 1021 30.15 851 25.13 -6.8 19.8 67 -11.9 10.6
01:05 1021 30.15 851 25.13 -6.7 20 65 -12.1 10.1
01:10 1021 30.15 851 25.13 -6.6 20.1 66 -11.9 10.7
01:15 1021 30.15 851 25.13 -6.6 20.1 67 -11.7 10.9
01:20 1021 30.15 851 25.13 -6.8 19.8 68 -11.7 10.9
01:25 1021 30.15 851 25.13 -7 19.3 70 -11.7 11
01:30 1021 30.15 851 25.13 -7.1 19.2 70 -11.8 10.8
01:35 1021 30.15 851 25.13 -7 19.4 69 -11.7 10.9
01:40 1022 30.18 851 25.13 -7.1 19.3 70 -11.6 11.1
01:45 1022 30.18 851 25.13 -7.1 19.3 69 -11.9 10.6
01:50 1022 30.18 851 25.13 -7 19.5 67 -12.1 10.3
01:55 1022 30.18 851 25.13 -6.9 19.5 68 -11.9 10.5
02:00 1022 30.18 851 25.13 -6.9 19.6 70 -11.5 11.2
02:05 1022 30.18 851 25.13 -6.9 19.7 71 -11.3 11.7
02:10 1022 30.18 851 25.13 -6.9 19.7 70 -11.4 11.4
02:15 1022 30.18 851 25.13 -6.8 19.7 70 -11.4 11.5
02:20 1022 30.18 851 25.13 -6.8 19.8 69 -11.5 11.3
02:25 1022 30.18 851 25.13 -6.7 20 68 -11.7 10.9
02:30 1022 30.18 851 25.13 -6.7 20 66 -12 10.4
02:35 1022 30.18 851 25.13 -6.6 20.1 66 -11.9 10.5
02:40 1022 30.18 851 25.13 -6.6 20.1 66 -12 10.4
02:45 1022 30.18 851 25.13 -6.6 20 64 -12.4 9.8
02:50 1021 30.15 851 25.13 -6.8 19.7 66 -12.2 10.1
02:55 1022 30.18 851 25.13 -6.7 19.9 64 -12.4 9.6
03:00 1022 30.18 851 25.13 -6.7 19.9 65 -12.3 9.8
03:05 1022 30.18 851 25.13 -6.6 20.1 64 -12.4 9.7
03:10 1022 30.18 851 25.13 -6.6 20.2 65 -12.2 10.1
03:15 1022 30.18 851 25.13 -6.6 20.2 65 -12 10.3
03:20 1022 30.18 851 25.13 -6.6 20.1 65 -12.2 10.1
03:25 1022 30.18 851 25.13 -6.6 20.1 65 -12.1 10.2
03:30 1022 30.18 851 25.13 -6.7 20 62 -12.7 9.1
03:35 1022 30.18 851 25.13 -6.7 19.9 65 -12.3 9.8
03:40 1022 30.18 851 25.13 -6.7 20 64 -12.4 9.8
03:45 1022 30.18 851 25.13 -6.7 20 65 -12.3 9.9
03:50 1022 30.18 851 25.13 -6.7 20 66 -12 10.3
03:55 1022 30.18 851 25.13 -6.7 19.9 66 -12 10.3
04:00 1022 30.18 851 25.13 -6.9 19.6 70 -11.5 11.2
04:05 1022 30.18 851 25.13 -7.1 19.2 71 -11.6 11.1
04:10 1022 30.18 851 25.13 -7.2 19 68 -12.2 10
04:15 1022 30.18 851 25.13 -7 19.5 67 -12.1 10.2
04:20 1022 30.18 851 25.13 -6.8 19.7 67 -12.1 10.3
04:25 1022 30.18 851 25.13 -6.8 19.7 66 -12.1 10.3
04:30 1022 30.18 851 25.13 -6.7 20 66 -11.9 10.5
04:35 1022 30.18 851 25.13 -6.5 20.2 64 -12.2 10.1
04:40 1022 30.18 851 25.13 -6.6 20.1 64 -12.4 9.7
04:45 1022 30.18 851 25.13 -6.7 19.9 65 -12.3 9.9
04:50 1022 30.18 851 25.13 -6.8 19.8 65 -12.4 9.7
04:55 1022 30.18 851 25.13 -6.7 19.9 66 -12.2 10.1
05:00 1022 30.18 851 25.13 -6.7 19.9 67 -11.9 10.6
05:05 1022 30.18 851 25.13 -6.8 19.8 67 -11.9 10.5
05:10 1022 30.18 851 25.13 -6.8 19.7 65 -12.3 9.8
05:15 1022 30.18 851 25.13 -6.8 19.8 67 -12 10.4
05:20 1022 30.18 851 25.13 -6.7 19.9 65 -12.3 9.8
05:25 1022 30.18 851 25.13 -6.7 19.9 67 -11.9 10.5
05:30 1022 30.18 851 25.13 -6.7 19.9 65 -12.3 9.9
05:35 1022 30.18 851 25.13 -6.7 20 69 -11.5 11.2
05:40 1022 30.18 851 25.13 -6.8 19.8 69 -11.5 11.2
05:45 1022 30.18 851 25.13 -6.8 19.7 71 -11.2 11.8
05:50 1022 30.18 851 25.13 -6.9 19.6 72 -11.2 11.9
05:55 1022 30.18 851 25.13 -6.9 19.5 72 -11.2 11.8
06:00 1022 30.18 851 25.13 -6.9 19.6 70 -11.5 11.3
06:05 1022 30.18 851 25.13 -6.8 19.8 67 -12 10.4
06:10 1022 30.18 851 25.13 -6.7 19.9 67 -11.9 10.6
06:15 1022 30.18 851 25.13 -6.7 19.9 65 -12.2 10
06:20 1022 30.18 851 25.13 -6.7 19.9 66 -12 10.4
06:25 1022 30.18 851 25.13 -6.7 19.9 66 -12.1 10.2
06:30 1022 30.18 851 25.13 -6.7 19.9 66 -12.2 10.1
06:35 1022 30.18 851 25.13 -6.7 19.9 68 -11.8 10.8
06:40 1022 30.18 851 25.13 -6.8 19.7 69 -11.5 11.2
06:45 1022 30.18 851 25.13 -6.9 19.5 70 -11.6 11.2
06:50 1022 30.18 851 25.13 -6.9 19.5 71 -11.4 11.5
06:55 1022 30.18 851 25.13 -7 19.5 70 -11.6 11.2
07:00 1022 30.18 851 25.13 -7.1 19.3 71 -11.6 11.2
07:05 1022 30.18 851 25.13 -7.1 19.2 71 -11.6 11.2
07:10 1022 30.18 851 25.13 -7.1 19.2 71 -11.5 11.3
07:15 1022 30.18 851 25.13 -7 19.4 70 -11.6 11.1
07:20 1022 30.18 851 25.13 -7 19.5 69 -11.7 10.9
07:25 1022 30.18 851 25.13 -7 19.5 67 -12 10.4
07:30 1022 30.18 851 25.13 -7 19.5 68 -12 10.4
07:35 1022 30.18 851 25.13 -7 19.5 67 -12.1 10.3
07:40 1022 30.18 851 25.13 -7 19.4 68 -12 10.4
07:45 1022 30.18 851 25.13 -7.1 19.3 68 -12 10.3
07:50 1022 30.18 851 25.13 -7.2 19.1 68 -12.1 10.2
07:55 1022 30.18 851 25.13 -7.2 19.1 68 -12.1 10.3
08:00 1022 30.18 851 25.13 -7.2 19.1 69 -11.9 10.5
08:05 1022 30.18 851 25.13 -7.3 18.9 69 -12 10.4
08:10 1022 30.18 851 25.13 -7.4 18.6 70 -12 10.4
08:15 1022 30.18 851 25.13 -7.5 18.5 71 -12 10.4
08:20 1022 30.18 851 25.13 -7.6 18.3 72 -11.9 10.5
08:25 1021 30.15 851 25.13 -7.7 18.2 72 -12 10.4
08:30 1022 30.18 851 25.13 -7.7 18.1 71 -12.1 10.3
08:35 1022 30.18 851 25.13 -7.8 18 71 -12.1 10.1
08:40 1022 30.18 851 25.13 -7.8 18 71 -12.1 10.2
08:45 1022 30.18 851 25.13 -8 17.6 73 -12 10.4
08:50 1022 30.18 851 25.13 -8 17.6 72 -12.2 10.1
08:55 1022 30.18 851 25.13 -7.9 17.7 73 -12 10.4
09:00 1022 30.18 851 25.13 -8 17.7 72 -12.2 10
09:05 1022 30.18 851 25.13 -7.8 18 72 -12 10.4
09:10 1022 30.18 851 25.13 -7.9 17.9 72 -12 10.4
09:15 1022 30.18 851 25.13 -7.8 17.9 73 -11.9 10.6
09:20 1022 30.18 851 25.13 -7.8 18 72 -11.9 10.6
09:25 1022 30.18 851 25.13 -7.7 18.1 73 -11.9 10.7
09:30 1022 30.18 851 25.13 -7.8 18 72 -12 10.4
09:35 1022 30.18 851 25.13 -7.6 18.3 71 -12 10.3
09:40 1022 30.18 852 25.16 -7.4 18.7 69 -12.1 10.3
09:45 1022 30.18 852 25.16 -7.2 19 68 -12.1 10.2
09:50 1022 30.18 851 25.13 -7.3 18.9 68 -12.2 10.1
09:55 1022 30.18 851 25.13 -7.5 18.5 68 -12.4 9.7
10:00 1022 30.18 851 25.13 -7.6 18.4 68 -12.4 9.6
10:05 1022 30.18 852 25.16 -7.6 18.3 69 -12.4 9.7
10:10 1022 30.18 852 25.16 -7.2 19 65 -12.6 9.2
10:15 1022 30.18 852 25.16 -6.9 19.5 65 -12.5 9.5
10:20 1022 30.18 852 25.16 -6.8 19.7 65 -12.4 9.6
10:25 1023 30.21 852 25.16 -6.7 19.9 64 -12.5 9.4
10:30 1023 30.21 852 25.16 -6.6 20 63 -12.6 9.4
10:35 1023 30.21 852 25.16 -6.4 20.5 60 -12.9 8.8
10:40 1023 30.21 852 25.16 -6.2 20.9 59 -12.9 8.8
10:45 1023 30.21 852 25.16 -6.1 21 59 -12.8 8.9
10:50 1023 30.21 852 25.16 -6.3 20.7 59 -13 8.7
10:55 1023 30.21 852 25.16 -6.3 20.7 59 -13 8.6
11:00 1023 30.21 852 25.16 -6.2 20.9 60 -12.7 9.1
11:05 1023 30.21 852 25.16 -6.1 21 60 -12.8 9
11:10 1023 30.21 852 25.16 -6.3 20.7 62 -12.5 9.5
11:15 1023 30.21 852 25.16 -6.3 20.7 59 -13 8.7
11:20 1023 30.21 852 25.16 -6.2 20.9 60 -12.8 8.9
11:25 1023 30.21 852 25.16 -5.7 21.7 58 -12.8 9
11:30 1023 30.21 852 25.16 -5.6 21.9 58 -12.6 9.3
11:35 1023 30.21 852 25.16 -5.5 22 59 -12.4 9.6
11:40 1023 30.21 852 25.16 -6.3 20.7 63 -12.2 10
11:45 1023 30.21 852 25.16 -6.9 19.6 64 -12.6 9.4
11:50 1023 30.21 852 25.16 -6.9 19.7 63 -12.8 9
11:55 1023 30.21 852 25.16 -6.7 20 63 -12.6 9.3
12:00 1023 30.21 852 25.16 -6.4 20.4 62 -12.6 9.3
12:05 1023 30.21 852 25.16 -5.9 21.4 60 -12.5 9.5
12:10 1023 30.21 852 25.16 -5.6 21.9 60 -12.2 10
12:15 1022 30.18 852 25.16 -5.7 21.8 61 -12 10.4
12:20 1023 30.21 852 25.16 -5.4 22.3 59 -12.2 10
12:25 1023 30.21 852 25.16 -5 23 58 -12 10.4
12:30 1022 30.18 852 25.16 -5.2 22.6 59 -12.1 10.3
12:35 1023 30.21 852 25.16 -5.1 22.8 59 -11.9 10.5
12:40 1023 30.21 852 25.16 -5.4 22.3 62 -11.6 11.1
12:45 1023 30.21 852 25.16 -5.6 21.9 60 -12.2 10.1
12:50 1023 30.21 852 25.16 -5.8 21.6 62 -12 10.4
12:55 1023 30.21 852 25.16 -6.1 20.9 65 -11.8 10.8
13:00 1023 30.21 852 25.16 -6.7 20 65 -12.3 9.9
13:05 1023 30.21 852 25.16 -6.4 20.5 66 -11.7 10.9
13:10 1023 30.21 852 25.16 -6.2 20.9 64 -11.8 10.7
13:15 1023 30.21 852 25.16 -5.9 21.3 63 -11.9 10.5
13:20 1023 30.21 852 25.16 -5.8 21.5 62 -12 10.5
13:25 1023 30.21 852 25.16 -5.8 21.6 63 -11.8 10.8
13:30 1024 30.24 853 25.19 -5.7 21.7 63 -11.7 10.9
13:35 1024 30.24 853 25.19 -5.8 21.5 64 -11.6 11.1
13:40 1024 30.24 853 25.19 -6.1 21 64 -11.9 10.6
13:45 1024 30.24 853 25.19 -6.2 20.8 64 -11.9 10.6
13:50 1024 30.24 853 25.19 -6.2 20.8 65 -11.8 10.7
13:55 1024 30.24 853 25.19 -6.2 20.8 65 -11.9 10.6
14:00 1024 30.24 853 25.19 -6.6 20.1 68 -11.6 11.1
14:05 1024 30.24 853 25.19 -6.8 19.7 68 -11.8 10.7
14:10 1024 30.24 853 25.19 -7.3 18.9 71 -11.6 11
14:15 1024 30.24 853 25.19 -7.2 19.1 69 -11.9 10.6
14:20 1024 30.24 853 25.19 -7.2 19.1 70 -11.7 10.9
14:25 1024 30.24 853 25.19 -7.1 19.2 69 -11.9 10.6
14:30 1024 30.24 853 25.19 -6.8 19.8 67 -11.9 10.6
14:35 1024 30.24 853 25.19 -6.5 20.3 66 -11.9 10.6
14:40 1024 30.24 853 25.19 -6.3 20.7 66 -11.7 11
14:45 1024 30.24 853 25.19 -5.9 21.4 64 -11.6 11.1
14:50 1024 30.24 853 25.19 -5.5 22.1 63 -11.5 11.3
14:55 1024 30.24 853 25.19 -5.2 22.6 59 -11.9 10.5
15:00 1024 30.24 853 25.19 -5.2 22.6 58 -12.3 9.9
15:05 1024 30.24 853 25.19 -4.6 23.6 54 -12.6 9.4
15:10 1024 30.24 853 25.19 -4.7 23.6 56 -12.2 10
15:15 1024 30.24 853 25.19 -4.7 23.5 55 -12.5 9.4
15:20 1024 30.24 853 25.19 -4.7 23.5 56 -12.2 10
15:25 1024 30.24 853 25.19 -4.6 23.8 56 -12.2 10.1
15:30 1024 30.24 853 25.19 -4.6 23.8 57 -11.8 10.7
15:35 1024 30.24 853 25.19 -4.4 24.1 55 -12.2 10
15:40 1024 30.24 853 25.19 -4.3 24.2 56 -11.8 10.7
15:45 1024 30.24 853 25.19 -3.9 24.9 54 -12 10.4
15:50 1024 30.24 853 25.19 -3.8 25.1 54 -11.8 10.8
15:55 1024 30.24 853 25.19 -4.1 24.6 56 -11.8 10.8
16:00 1024 30.24 853 25.19 -4.1 24.7 56 -11.7 11
16:05 1024 30.24 853 25.19 -3.8 25.1 57 -11.2 11.8
16:10 1024 30.24 853 25.19 -3.8 25.2 55 -11.6 11.1
16:15 1024 30.24 853 25.19 -3.9 24.9 58 -11.1 12
16:20 1024 30.24 853 25.19 -4 24.8 58 -11.2 11.9
16:25 1024 30.24 853 25.19 -4.3 24.3 58 -11.2 11.8
16:30 1024 30.24 853 25.19 -3.9 24.9 58 -11.1 12.1
16:35 1024 30.24 853 25.19 -3.7 25.4 56 -11.3 11.7
16:40 1024 30.24 853 25.19 -3.8 25.2 57 -11.1 12.1
16:45 1024 30.24 853 25.19 -3.9 25 58 -11 12.3
16:50 1024 30.24 853 25.19 -3.8 25.2 57 -11.2 11.9
16:55 1024 30.24 853 25.19 -3.8 25.2 57 -11.1 12
17:00 1024 30.24 853 25.19 -4.1 24.7 59 -11 12.2
17:05 1024 30.24 853 25.19 -4.5 23.9 60 -11.1 12
17:10 1024 30.24 853 25.19 -4.8 23.3 61 -11.4 11.6
17:15 1024 30.24 853 25.19 -5 23.1 61 -11.4 11.4
17:20 1024 30.24 854 25.22 -5 23.1 61 -11.4 11.4
17:25 1024 30.24 854 25.22 -4.9 23.1 61 -11.4 11.5
17:30 1024 30.24 854 25.22 -5 23 61 -11.5 11.3
17:35 1024 30.24 854 25.22 -5.1 22.9 60 -11.6 11.2
17:40 1024 30.24 854 25.22 -5.1 22.8 60 -11.6 11.1
17:45 1024 30.24 854 25.22 -5.1 22.8 61 -11.4 11.4
17:50 1025 30.27 854 25.22 -5.1 22.7 61 -11.6 11.2
17:55 1025 30.27 854 25.22 -5.2 22.6 61 -11.5 11.3
18:00 1025 30.27 854 25.22 -5.3 22.5 61 -11.6 11.1
18:05 1025 30.27 854 25.22 -5.3 22.5 61 -11.7 10.9
18:10 1025 30.27 854 25.22 -5.3 22.4 61 -11.6 11
18:15 1025 30.27 854 25.22 -5.4 22.2 62 -11.7 11
18:20 1025 30.27 854 25.22 -5.5 22.2 61 -11.8 10.7
18:25 1025 30.27 854 25.22 -5.3 22.4 60 -12 10.5
18:30 1025 30.27 854 25.22 -5.3 22.5 60 -11.9 10.6
18:35 1025 30.27 854 25.22 -5.4 22.4 62 -11.5 11.2
18:40 1025 30.27 854 25.22 -5.6 22 63 -11.6 11.2
18:45 1025 30.27 854 25.22 -5.6 21.9 63 -11.7 11
18:50 1025 30.27 854 25.22 -5.8 21.6 64 -11.7 11
18:55 1025 30.27 854 25.22 -6 21.1 65 -11.5 11.2
19:00 1025 30.27 854 25.22 -5.9 21.4 62 -12 10.4
19:05 1025 30.27 854 25.22 -5.6 22 62 -11.7 10.9
19:10 1025 30.27 854 25.22 -5.5 22 62 -11.8 10.8
19:15 1025 30.27 854 25.22 -5.5 22.2 62 -11.7 10.9
19:20 1025 30.27 854 25.22 -5.5 22.1 61 -11.8 10.8
19:25 1025 30.27 854 25.22 -5.6 21.9 62 -11.7 10.9
19:30 1025 30.27 854 25.22 -5.8 21.6 64 -11.6 11.2
19:35 1025 30.27 854 25.22 -6.1 21 65 -11.7 11
19:40 1025 30.27 854 25.22 -6.2 20.9 64 -11.9 10.7
19:45 1025 30.27 854 25.22 -6 21.1 64 -11.8 10.8
19:50 1025 30.27 854 25.22 -6.2 20.9 65 -11.8 10.8
19:55 1025 30.27 854 25.22 -6.5 20.3 66 -11.8 10.7
20:00 1025 30.27 854 25.22 -6.5 20.3 66 -11.9 10.6
20:05 1025 30.27 854 25.22 -6.4 20.4 65 -11.9 10.6
20:10 1025 30.27 854 25.22 -6.6 20.2 67 -11.7 11
20:15 1025 30.27 854 25.22 -7.2 19.1 69 -11.8 10.7
20:20 1025 30.27 854 25.22 -7.5 18.5 70 -12 10.4
20:25 1025 30.27 854 25.22 -7.6 18.3 72 -11.8 10.8
20:30 1025 30.27 854 25.22 -7.7 18.2 72 -11.9 10.5
20:35 1025 30.27 854 25.22 -7.7 18.1 71 -12 10.4
20:40 1025 30.27 854 25.22 -7.7 18.2 71 -12 10.3
20:45 1025 30.27 854 25.22 -7.7 18.1 72 -11.9 10.6
20:50 1025 30.27 854 25.22 -7.7 18.2 71 -12.1 10.3
20:55 1025 30.27 854 25.22 -7.4 18.7 70 -12 10.4
21:00 1025 30.27 854 25.22 -7.5 18.5 71 -11.8 10.7
21:05 1025 30.27 854 25.22 -8 17.6 74 -11.9 10.7
21:10 1025 30.27 854 25.22 -8.3 17.2 74 -12.1 10.3
21:15 1025 30.27 854 25.22 -8.4 16.8 74 -12.3 9.9
21:20 1025 30.27 854 25.22 -8.2 17.3 73 -12.2 10
21:25 1025 30.27 854 25.22 -8 17.7 72 -12.1 10.2
21:30 1025 30.27 854 25.22 -8.1 17.5 74 -11.9 10.6
21:35 1025 30.27 854 25.22 -8 17.7 75 -11.7 10.9
21:40 1025 30.27 854 25.22 -7.8 17.9 74 -11.7 11
21:45 1025 30.27 854 25.22 -7.8 18 74 -11.6 11.1
21:50 1025 30.27 854 25.22 -7.9 17.8 74 -11.7 11
21:55 1025 30.27 855 25.25 -8 17.6 75 -11.7 10.9
22:00 1025 30.27 854 25.22 -8.4 16.9 72 -12.6 9.4
22:05 1025 30.27 855 25.25 -9.4 15.1 78 -12.6 9.4
22:10 1025 30.27 855 25.25 -10 13.9 82 -12.6 9.3
22:15 1026 30.3 855 25.25 -10.3 13.4 83 -12.6 9.3
22:20 1026 30.3 855 25.25 -10.2 13.6 83 -12.5 9.5
22:25 1026 30.3 855 25.25 -10.3 13.6 84 -12.5 9.6
22:30 1026 30.3 855 25.25 -10.2 13.7 84 -12.4 9.7
22:35 1026 30.3 855 25.25 -9.9 14.2 83 -12.3 9.9
22:40 1026 30.3 855 25.25 -9.8 14.3 83 -12.2 10.1
22:45 1026 30.3 855 25.25 -9.5 14.8 82 -12.1 10.2
22:50 1025 30.27 855 25.25 -9.6 14.7 81 -12.4 9.7
22:55 1026 30.3 855 25.25 -9.6 14.7 80 -12.5 9.6
23:00 1026 30.3 855 25.25 -9.2 15.4 78 -12.4 9.7
23:05 1026 30.3 855 25.25 -9 15.9 76 -12.4 9.6
23:10 1026 30.3 855 25.25 -9 15.9 75 -12.6 9.4
23:15 1026 30.3 855 25.25 -9.3 15.3 76 -12.7 9.1
23:20 1026 30.3 855 25.25 -9.4 15 77 -12.7 9.1
23:25 1026 30.3 855 25.25 -9.1 15.7 74 -12.8 8.9
23:30 1026 30.3 855 25.25 -9.4 15.1 75 -13.1 8.5
23:35 1026 30.3 855 25.25 -9.9 14.3 76 -13.3 8.1
23:40 1026 30.3 855 25.25 -9.8 14.4 75 -13.5 7.8
23:45 1026 30.3 855 25.25 -10.1 13.9 76 -13.5 7.7
23:50 1026 30.3 855 25.25 -10.4 13.3 78 -13.6 7.6
23:55 1026 30.3 855 25.25 -10.6 12.9 78 -13.7 7.3
24:00 1026 30.3 855 25.25 -10.6 13 78 -13.8 7.2